sensor_id;sensor_type;location;lat;lon;timestamp;temperature;humidity
20057;DHT22;10189;49.546;7.906;2022-08-06T00:02:23;16.40;62.50
20057;DHT22;10189;49.546;7.906;2022-08-06T00:04:52;16.30;63.20
20057;DHT22;10189;49.546;7.906;2022-08-06T00:07:18;16.20;63.40
20057;DHT22;10189;49.546;7.906;2022-08-06T00:09:45;16.30;62.70
20057;DHT22;10189;49.546;7.906;2022-08-06T00:12:11;16.30;63.40
20057;DHT22;10189;49.546;7.906;2022-08-06T00:14:37;16.40;63.30
20057;DHT22;10189;49.546;7.906;2022-08-06T00:17:04;16.30;63.20
20057;DHT22;10189;49.546;7.906;2022-08-06T00:19:29;16.40;63.30
20057;DHT22;10189;49.546;7.906;2022-08-06T00:21:56;16.30;63.90
20057;DHT22;10189;49.546;7.906;2022-08-06T00:24:22;16.20;63.80
20057;DHT22;10189;49.546;7.906;2022-08-06T00:26:48;16.20;64.00
20057;DHT22;10189;49.546;7.906;2022-08-06T00:29:14;16.20;64.60
20057;DHT22;10189;49.546;7.906;2022-08-06T00:31:40;16.20;64.30
20057;DHT22;10189;49.546;7.906;2022-08-06T00:34:06;16.20;64.30
20057;DHT22;10189;49.546;7.906;2022-08-06T00:36:34;16.10;64.40
20057;DHT22;10189;49.546;7.906;2022-08-06T00:39:03;16.10;64.50
20057;DHT22;10189;49.546;7.906;2022-08-06T00:41:33;16.10;64.30
20057;DHT22;10189;49.546;7.906;2022-08-06T00:44:00;16.10;64.30
20057;DHT22;10189;49.546;7.906;2022-08-06T00:46:27;16.10;64.20
20057;DHT22;10189;49.546;7.906;2022-08-06T00:48:53;15.90;64.60
20057;DHT22;10189;49.546;7.906;2022-08-06T00:51:19;15.90;64.70
20057;DHT22;10189;49.546;7.906;2022-08-06T00:53:45;15.90;64.60
20057;DHT22;10189;49.546;7.906;2022-08-06T00:56:11;15.80;65.10
20057;DHT22;10189;49.546;7.906;2022-08-06T00:58:38;15.70;65.30
20057;DHT22;10189;49.546;7.906;2022-08-06T01:01:04;15.70;65.50
20057;DHT22;10189;49.546;7.906;2022-08-06T01:03:30;15.60;65.80
20057;DHT22;10189;49.546;7.906;2022-08-06T01:05:56;15.60;66.40
20057;DHT22;10189;49.546;7.906;2022-08-06T01:08:22;15.60;66.60
20057;DHT22;10189;49.546;7.906;2022-08-06T01:10:48;15.60;67.10
20057;DHT22;10189;49.546;7.906;2022-08-06T01:13:14;15.50;67.30
20057;DHT22;10189;49.546;7.906;2022-08-06T01:15:43;15.50;67.30
20057;DHT22;10189;49.546;7.906;2022-08-06T01:18:25;15.40;67.90
20057;DHT22;10189;49.546;7.906;2022-08-06T01:21:13;15.40;67.90
20057;DHT22;10189;49.546;7.906;2022-08-06T01:24:23;15.40;68.30
20057;DHT22;10189;49.546;7.906;2022-08-06T01:29:50;15.20;68.70
20057;DHT22;10189;49.546;7.906;2022-08-06T01:32:45;15.20;68.70
20057;DHT22;10189;49.546;7.906;2022-08-06T01:35:27;15.20;68.70
20057;DHT22;10189;49.546;7.906;2022-08-06T01:38:12;15.20;69.00
20057;DHT22;10189;49.546;7.906;2022-08-06T01:40:45;15.10;69.10
20057;DHT22;10189;49.546;7.906;2022-08-06T01:43:15;14.90;69.50
20057;DHT22;10189;49.546;7.906;2022-08-06T01:45:43;14.80;70.50
20057;DHT22;10189;49.546;7.906;2022-08-06T01:48:14;14.80;70.60
20057;DHT22;10189;49.546;7.906;2022-08-06T01:50:48;14.90;70.50
20057;DHT22;10189;49.546;7.906;2022-08-06T01:53:22;14.80;70.60
20057;DHT22;10189;49.546;7.906;2022-08-06T01:55:55;14.70;70.60
20057;DHT22;10189;49.546;7.906;2022-08-06T01:58:30;14.60;71.20
20057;DHT22;10189;49.546;7.906;2022-08-06T02:01:03;14.60;70.80
20057;DHT22;10189;49.546;7.906;2022-08-06T02:03:46;14.50;71.20
20057;DHT22;10189;49.546;7.906;2022-08-06T02:06:18;14.40;71.60
20057;DHT22;10189;49.546;7.906;2022-08-06T02:08:49;14.40;71.70
20057;DHT22;10189;49.546;7.906;2022-08-06T02:11:17;14.30;71.80
20057;DHT22;10189;49.546;7.906;2022-08-06T02:13:45;14.20;72.20
20057;DHT22;10189;49.546;7.906;2022-08-06T02:16:13;14.00;72.80
20057;DHT22;10189;49.546;7.906;2022-08-06T02:18:44;13.90;73.20
20057;DHT22;10189;49.546;7.906;2022-08-06T02:21:15;13.90;73.10
20057;DHT22;10189;49.546;7.906;2022-08-06T02:23:45;13.80;72.90
20057;DHT22;10189;49.546;7.906;2022-08-06T02:26:14;13.90;73.10
20057;DHT22;10189;49.546;7.906;2022-08-06T02:28:43;13.90;72.70
20057;DHT22;10189;49.546;7.906;2022-08-06T02:31:11;13.80;73.00
20057;DHT22;10189;49.546;7.906;2022-08-06T02:33:37;13.80;73.10
20057;DHT22;10189;49.546;7.906;2022-08-06T02:36:20;13.80;72.60
20057;DHT22;10189;49.546;7.906;2022-08-06T02:38:55;13.80;72.80
20057;DHT22;10189;49.546;7.906;2022-08-06T02:41:39;13.70;72.90
20057;DHT22;10189;49.546;7.906;2022-08-06T02:50:08;13.30;73.80
20057;DHT22;10189;49.546;7.906;2022-08-06T02:52:48;13.30;73.80
20057;DHT22;10189;49.546;7.906;2022-08-06T02:55:20;13.20;73.80
20057;DHT22;10189;49.546;7.906;2022-08-06T02:57:53;13.30;73.30
20057;DHT22;10189;49.546;7.906;2022-08-06T03:00:23;13.30;73.00
20057;DHT22;10189;49.546;7.906;2022-08-06T03:02:54;13.20;73.50
20057;DHT22;10189;49.546;7.906;2022-08-06T03:05:22;13.20;73.60
20057;DHT22;10189;49.546;7.906;2022-08-06T03:07:51;13.20;73.70
20057;DHT22;10189;49.546;7.906;2022-08-06T03:10:21;13.20;73.20
20057;DHT22;10189;49.546;7.906;2022-08-06T03:12:51;13.20;73.30
20057;DHT22;10189;49.546;7.906;2022-08-06T03:15:19;13.20;73.50
20057;DHT22;10189;49.546;7.906;2022-08-06T03:17:46;13.10;73.60
20057;DHT22;10189;49.546;7.906;2022-08-06T03:20:18;13.10;73.70
20057;DHT22;10189;49.546;7.906;2022-08-06T03:22:48;13.10;73.40
20057;DHT22;10189;49.546;7.906;2022-08-06T03:25:16;13.00;73.20
20057;DHT22;10189;49.546;7.906;2022-08-06T03:27:47;12.90;73.50
20057;DHT22;10189;49.546;7.906;2022-08-06T03:30:16;12.90;73.30
20057;DHT22;10189;49.546;7.906;2022-08-06T03:32:44;12.80;73.80
20057;DHT22;10189;49.546;7.906;2022-08-06T03:35:12;12.80;73.80
20057;DHT22;10189;49.546;7.906;2022-08-06T03:37:40;12.70;74.00
20057;DHT22;10189;49.546;7.906;2022-08-06T03:40:09;12.70;73.60
20057;DHT22;10189;49.546;7.906;2022-08-06T03:42:37;12.70;73.90
20057;DHT22;10189;49.546;7.906;2022-08-06T03:45:04;12.60;73.90
20057;DHT22;10189;49.546;7.906;2022-08-06T03:47:33;12.50;74.40
20057;DHT22;10189;49.546;7.906;2022-08-06T03:50:09;12.50;74.00
20057;DHT22;10189;49.546;7.906;2022-08-06T03:52:41;12.40;74.40
20057;DHT22;10189;49.546;7.906;2022-08-06T03:55:15;12.30;74.90
20057;DHT22;10189;49.546;7.906;2022-08-06T03:57:47;12.30;75.90
20057;DHT22;10189;49.546;7.906;2022-08-06T04:00:17;12.30;75.50
20057;DHT22;10189;49.546;7.906;2022-08-06T04:02:53;12.40;74.90
20057;DHT22;10189;49.546;7.906;2022-08-06T04:05:27;12.30;75.00
20057;DHT22;10189;49.546;7.906;2022-08-06T04:07:57;12.20;74.90
20057;DHT22;10189;49.546;7.906;2022-08-06T04:10:26;12.20;74.90
20057;DHT22;10189;49.546;7.906;2022-08-06T04:12:54;12.20;75.20
20057;DHT22;10189;49.546;7.906;2022-08-06T04:15:21;12.10;75.40
20057;DHT22;10189;49.546;7.906;2022-08-06T04:17:50;12.00;75.90
20057;DHT22;10189;49.546;7.906;2022-08-06T04:20:20;11.90;76.10
20057;DHT22;10189;49.546;7.906;2022-08-06T04:22:48;11.90;76.50
20057;DHT22;10189;49.546;7.906;2022-08-06T04:25:14;11.80;76.30
20057;DHT22;10189;49.546;7.906;2022-08-06T04:27:42;11.80;76.40
20057;DHT22;10189;49.546;7.906;2022-08-06T04:30:12;11.90;76.30
20057;DHT22;10189;49.546;7.906;2022-08-06T04:32:39;11.90;76.40
20057;DHT22;10189;49.546;7.906;2022-08-06T04:35:09;12.00;76.40
20057;DHT22;10189;49.546;7.906;2022-08-06T04:37:36;12.10;76.00
20057;DHT22;10189;49.546;7.906;2022-08-06T04:40:03;12.10;75.70
20057;DHT22;10189;49.546;7.906;2022-08-06T04:42:32;12.20;75.20
20057;DHT22;10189;49.546;7.906;2022-08-06T04:44:58;12.20;75.20
20057;DHT22;10189;49.546;7.906;2022-08-06T04:47:28;12.20;75.10
20057;DHT22;10189;49.546;7.906;2022-08-06T04:49:56;12.20;75.10
20057;DHT22;10189;49.546;7.906;2022-08-06T04:52:23;12.10;75.80
20057;DHT22;10189;49.546;7.906;2022-08-06T04:54:50;12.20;75.80
20057;DHT22;10189;49.546;7.906;2022-08-06T04:57:16;12.30;75.60
20057;DHT22;10189;49.546;7.906;2022-08-06T04:59:42;12.40;75.40
20057;DHT22;10189;49.546;7.906;2022-08-06T05:02:09;12.60;74.10
20057;DHT22;10189;49.546;7.906;2022-08-06T05:04:36;12.90;72.60
20057;DHT22;10189;49.546;7.906;2022-08-06T05:07:16;13.20;72.00
20057;DHT22;10189;49.546;7.906;2022-08-06T05:09:53;13.50;68.00
20057;DHT22;10189;49.546;7.906;2022-08-06T05:15:11;13.90;66.40
20057;DHT22;10189;49.546;7.906;2022-08-06T05:18:25;14.10;66.20
20057;DHT22;10189;49.546;7.906;2022-08-06T05:20:56;14.30;66.70
20057;DHT22;10189;49.546;7.906;2022-08-06T05:23:35;14.50;66.20
20057;DHT22;10189;49.546;7.906;2022-08-06T05:26:05;14.70;66.70
20057;DHT22;10189;49.546;7.906;2022-08-06T05:28:32;14.80;63.00
20057;DHT22;10189;49.546;7.906;2022-08-06T05:30:59;15.00;63.10
20057;DHT22;10189;49.546;7.906;2022-08-06T05:33:29;15.10;61.80
20057;DHT22;10189;49.546;7.906;2022-08-06T05:35:59;15.10;62.00
20057;DHT22;10189;49.546;7.906;2022-08-06T05:38:26;15.20;62.10
20057;DHT22;10189;49.546;7.906;2022-08-06T05:40:54;15.10;61.00
20057;DHT22;10189;49.546;7.906;2022-08-06T05:43:22;15.20;60.40
20057;DHT22;10189;49.546;7.906;2022-08-06T05:45:51;15.10;60.30
20057;DHT22;10189;49.546;7.906;2022-08-06T05:48:21;15.10;60.50
20057;DHT22;10189;49.546;7.906;2022-08-06T05:50:56;15.10;60.40
20057;DHT22;10189;49.546;7.906;2022-08-06T05:53:33;15.10;60.50
20057;DHT22;10189;49.546;7.906;2022-08-06T05:56:12;15.10;60.70
20057;DHT22;10189;49.546;7.906;2022-08-06T05:58:53;15.20;60.80
20057;DHT22;10189;49.546;7.906;2022-08-06T06:01:32;15.20;60.10
20057;DHT22;10189;49.546;7.906;2022-08-06T06:04:01;15.20;60.70
20057;DHT22;10189;49.546;7.906;2022-08-06T06:06:28;15.10;60.80
20057;DHT22;10189;49.546;7.906;2022-08-06T06:08:54;15.20;60.80
20057;DHT22;10189;49.546;7.906;2022-08-06T06:11:20;15.10;61.40
20057;DHT22;10189;49.546;7.906;2022-08-06T06:13:48;15.30;61.10
20057;DHT22;10189;49.546;7.906;2022-08-06T06:16:40;15.40;60.70
20057;DHT22;10189;49.546;7.906;2022-08-06T06:19:38;15.50;60.70
20057;DHT22;10189;49.546;7.906;2022-08-06T06:22:23;15.70;61.30
20057;DHT22;10189;49.546;7.906;2022-08-06T06:24:59;15.90;59.30
20057;DHT22;10189;49.546;7.906;2022-08-06T06:30:17;16.20;59.20
20057;DHT22;10189;49.546;7.906;2022-08-06T06:33:06;16.20;58.40
20057;DHT22;10189;49.546;7.906;2022-08-06T06:35:56;16.10;58.40
20057;DHT22;10189;49.546;7.906;2022-08-06T06:38:51;16.30;58.00
20057;DHT22;10189;49.546;7.906;2022-08-06T06:41:33;16.50;58.10
20057;DHT22;10189;49.546;7.906;2022-08-06T06:46:59;16.40;56.30
20057;DHT22;10189;49.546;7.906;2022-08-06T06:49:44;16.30;57.20
20057;DHT22;10189;49.546;7.906;2022-08-06T06:55:22;16.50;57.70
20057;DHT22;10189;49.546;7.906;2022-08-06T06:58:43;16.60;57.90
20057;DHT22;10189;49.546;7.906;2022-08-06T07:01:16;16.80;56.50
20057;DHT22;10189;49.546;7.906;2022-08-06T07:03:45;16.70;56.50
20057;DHT22;10189;49.546;7.906;2022-08-06T07:06:15;16.80;56.50
20057;DHT22;10189;49.546;7.906;2022-08-06T07:08:43;16.70;56.50
20057;DHT22;10189;49.546;7.906;2022-08-06T07:11:20;16.50;57.50
20057;DHT22;10189;49.546;7.906;2022-08-06T07:13:49;16.50;57.80
20057;DHT22;10189;49.546;7.906;2022-08-06T07:16:22;16.60;57.00
20057;DHT22;10189;49.546;7.906;2022-08-06T07:18:50;16.90;57.20
20057;DHT22;10189;49.546;7.906;2022-08-06T07:21:21;17.30;57.00
20057;DHT22;10189;49.546;7.906;2022-08-06T07:23:50;17.50;57.00
20057;DHT22;10189;49.546;7.906;2022-08-06T07:26:18;17.80;55.20
20057;DHT22;10189;49.546;7.906;2022-08-06T07:28:48;17.80;55.60
20057;DHT22;10189;49.546;7.906;2022-08-06T07:31:16;17.60;55.00
20057;DHT22;10189;49.546;7.906;2022-08-06T07:33:44;17.60;55.40
20057;DHT22;10189;49.546;7.906;2022-08-06T07:36:15;17.70;55.50
20057;DHT22;10189;49.546;7.906;2022-08-06T07:38:44;17.60;55.30
20057;DHT22;10189;49.546;7.906;2022-08-06T07:41:13;17.40;55.40
20057;DHT22;10189;49.546;7.906;2022-08-06T07:44:02;17.60;55.90
20057;DHT22;10189;49.546;7.906;2022-08-06T07:46:40;17.70;55.20
20057;DHT22;10189;49.546;7.906;2022-08-06T07:49:10;17.70;54.90
20057;DHT22;10189;49.546;7.906;2022-08-06T07:51:40;17.90;55.50
20057;DHT22;10189;49.546;7.906;2022-08-06T07:54:10;18.10;54.10
20057;DHT22;10189;49.546;7.906;2022-08-06T07:56:39;18.10;54.60
20057;DHT22;10189;49.546;7.906;2022-08-06T07:59:07;18.20;53.20
20057;DHT22;10189;49.546;7.906;2022-08-06T08:01:35;18.30;52.60
20057;DHT22;10189;49.546;7.906;2022-08-06T08:04:07;18.40;53.90
20057;DHT22;10189;49.546;7.906;2022-08-06T08:06:54;18.50;53.00
20057;DHT22;10189;49.546;7.906;2022-08-06T08:09:24;18.60;51.60
20057;DHT22;10189;49.546;7.906;2022-08-06T08:11:52;18.50;51.00
20057;DHT22;10189;49.546;7.906;2022-08-06T08:14:21;18.20;52.80
20057;DHT22;10189;49.546;7.906;2022-08-06T08:16:48;18.40;51.90
20057;DHT22;10189;49.546;7.906;2022-08-06T08:19:19;18.40;50.90
20057;DHT22;10189;49.546;7.906;2022-08-06T08:21:50;18.60;52.30
20057;DHT22;10189;49.546;7.906;2022-08-06T08:24:17;18.60;50.50
20057;DHT22;10189;49.546;7.906;2022-08-06T08:26:44;18.40;51.70
20057;DHT22;10189;49.546;7.906;2022-08-06T08:29:11;18.40;50.50
20057;DHT22;10189;49.546;7.906;2022-08-06T08:31:37;18.40;51.30
20057;DHT22;10189;49.546;7.906;2022-08-06T08:34:03;18.40;49.80
20057;DHT22;10189;49.546;7.906;2022-08-06T08:36:29;18.60;50.20
20057;DHT22;10189;49.546;7.906;2022-08-06T08:38:55;18.90;50.00
20057;DHT22;10189;49.546;7.906;2022-08-06T08:41:30;19.20;49.60
20057;DHT22;10189;49.546;7.906;2022-08-06T08:44:03;19.40;46.30
20057;DHT22;10189;49.546;7.906;2022-08-06T08:46:41;19.40;47.00
20057;DHT22;10189;49.546;7.906;2022-08-06T08:49:15;19.40;47.00
20057;DHT22;10189;49.546;7.906;2022-08-06T08:51:45;19.50;47.60
20057;DHT22;10189;49.546;7.906;2022-08-06T08:54:17;19.20;47.60
20057;DHT22;10189;49.546;7.906;2022-08-06T08:56:47;19.50;46.40
20057;DHT22;10189;49.546;7.906;2022-08-06T08:59:14;19.60;46.50
20057;DHT22;10189;49.546;7.906;2022-08-06T09:01:41;19.50;46.50
20057;DHT22;10189;49.546;7.906;2022-08-06T09:04:08;19.40;47.00
20057;DHT22;10189;49.546;7.906;2022-08-06T09:06:36;19.50;46.50
20057;DHT22;10189;49.546;7.906;2022-08-06T09:09:04;19.60;46.10
20057;DHT22;10189;49.546;7.906;2022-08-06T09:11:35;19.50;45.90
20057;DHT22;10189;49.546;7.906;2022-08-06T09:14:03;19.60;46.00
20057;DHT22;10189;49.546;7.906;2022-08-06T09:16:33;19.60;45.50
20057;DHT22;10189;49.546;7.906;2022-08-06T09:19:01;19.70;46.00
20057;DHT22;10189;49.546;7.906;2022-08-06T09:21:29;19.80;45.60
20057;DHT22;10189;49.546;7.906;2022-08-06T09:23:57;20.00;45.30
20057;DHT22;10189;49.546;7.906;2022-08-06T09:26:23;19.80;45.50
20057;DHT22;10189;49.546;7.906;2022-08-06T09:28:49;19.70;46.40
20057;DHT22;10189;49.546;7.906;2022-08-06T09:31:20;19.80;45.90
20057;DHT22;10189;49.546;7.906;2022-08-06T09:33:55;20.00;45.80
20057;DHT22;10189;49.546;7.906;2022-08-06T09:36:26;20.10;44.40
20057;DHT22;10189;49.546;7.906;2022-08-06T09:38:58;19.60;44.80
20057;DHT22;10189;49.546;7.906;2022-08-06T09:41:27;19.50;46.20
20057;DHT22;10189;49.546;7.906;2022-08-06T09:43:56;19.50;46.10
20057;DHT22;10189;49.546;7.906;2022-08-06T09:46:47;19.50;45.50
20057;DHT22;10189;49.546;7.906;2022-08-06T09:49:18;19.40;46.10
20057;DHT22;10189;49.546;7.906;2022-08-06T09:51:45;19.60;46.20
20057;DHT22;10189;49.546;7.906;2022-08-06T09:54:13;19.80;45.60
20057;DHT22;10189;49.546;7.906;2022-08-06T09:56:44;20.00;45.00
20057;DHT22;10189;49.546;7.906;2022-08-06T09:59:12;20.20;44.40
20057;DHT22;10189;49.546;7.906;2022-08-06T10:01:45;20.00;43.20
20057;DHT22;10189;49.546;7.906;2022-08-06T10:04:30;20.10;43.80
20057;DHT22;10189;49.546;7.906;2022-08-06T10:07:00;20.00;43.40
20057;DHT22;10189;49.546;7.906;2022-08-06T10:09:27;19.90;44.00
20057;DHT22;10189;49.546;7.906;2022-08-06T10:11:54;19.90;42.90
20057;DHT22;10189;49.546;7.906;2022-08-06T10:17:11;20.10;43.90
20057;DHT22;10189;49.546;7.906;2022-08-06T10:19:41;20.30;41.20
20057;DHT22;10189;49.546;7.906;2022-08-06T10:22:16;20.30;40.80
20057;DHT22;10189;49.546;7.906;2022-08-06T10:24:46;20.60;40.50
20057;DHT22;10189;49.546;7.906;2022-08-06T10:27:34;20.60;40.20
20057;DHT22;10189;49.546;7.906;2022-08-06T10:30:04;20.50;42.20
20057;DHT22;10189;49.546;7.906;2022-08-06T10:35:26;20.60;42.30
20057;DHT22;10189;49.546;7.906;2022-08-06T10:37:58;20.70;41.70
20057;DHT22;10189;49.546;7.906;2022-08-06T10:40:26;20.90;41.60
20057;DHT22;10189;49.546;7.906;2022-08-06T10:42:53;21.00;41.40
20057;DHT22;10189;49.546;7.906;2022-08-06T10:45:19;20.70;41.20
20057;DHT22;10189;49.546;7.906;2022-08-06T10:47:47;20.50;42.00
20057;DHT22;10189;49.546;7.906;2022-08-06T10:50:13;20.50;41.70
20057;DHT22;10189;49.546;7.906;2022-08-06T10:52:41;20.30;41.30
20057;DHT22;10189;49.546;7.906;2022-08-06T10:55:08;20.40;41.80
20057;DHT22;10189;49.546;7.906;2022-08-06T10:57:38;20.50;41.60
20057;DHT22;10189;49.546;7.906;2022-08-06T11:00:06;20.40;41.10
20057;DHT22;10189;49.546;7.906;2022-08-06T11:05:26;20.80;40.10
20057;DHT22;10189;49.546;7.906;2022-08-06T11:14:18;20.30;40.20
20057;DHT22;10189;49.546;7.906;2022-08-06T11:16:56;20.50;41.90
20057;DHT22;10189;49.546;7.906;2022-08-06T11:19:42;21.00;41.00
20057;DHT22;10189;49.546;7.906;2022-08-06T11:22:36;21.30;40.50
20057;DHT22;10189;49.546;7.906;2022-08-06T11:25:06;21.60;40.70
20057;DHT22;10189;49.546;7.906;2022-08-06T11:27:55;21.80;38.90
20057;DHT22;10189;49.546;7.906;2022-08-06T11:30:39;21.80;39.90
20057;DHT22;10189;49.546;7.906;2022-08-06T11:33:06;21.40;38.90
20057;DHT22;10189;49.546;7.906;2022-08-06T11:38:03;21.40;38.70
20057;DHT22;10189;49.546;7.906;2022-08-06T11:46:30;21.10;39.10
20057;DHT22;10189;49.546;7.906;2022-08-06T11:54:25;21.60;39.10
20057;DHT22;10189;49.546;7.906;2022-08-06T12:00:18;21.70;38.50
20057;DHT22;10189;49.546;7.906;2022-08-06T12:08:14;21.50;38.30
20057;DHT22;10189;49.546;7.906;2022-08-06T12:11:23;21.70;37.60
20057;DHT22;10189;49.546;7.906;2022-08-06T12:13:51;21.70;35.90
20057;DHT22;10189;49.546;7.906;2022-08-06T12:16:29;21.60;36.00
20057;DHT22;10189;49.546;7.906;2022-08-06T12:19:01;21.80;36.80
20057;DHT22;10189;49.546;7.906;2022-08-06T12:21:29;21.70;37.40
20057;DHT22;10189;49.546;7.906;2022-08-06T12:23:56;21.90;38.80
20057;DHT22;10189;49.546;7.906;2022-08-06T12:26:23;22.00;37.90
20057;DHT22;10189;49.546;7.906;2022-08-06T12:28:49;22.10;37.50
20057;DHT22;10189;49.546;7.906;2022-08-06T12:31:30;22.10;37.40
20057;DHT22;10189;49.546;7.906;2022-08-06T12:33:58;22.10;37.50
20057;DHT22;10189;49.546;7.906;2022-08-06T12:36:26;22.00;37.50
20057;DHT22;10189;49.546;7.906;2022-08-06T12:38:56;22.00;37.50
20057;DHT22;10189;49.546;7.906;2022-08-06T12:41:23;22.20;36.70
20057;DHT22;10189;49.546;7.906;2022-08-06T12:43:58;22.30;36.10
20057;DHT22;10189;49.546;7.906;2022-08-06T12:46:24;22.30;34.90
20057;DHT22;10189;49.546;7.906;2022-08-06T12:48:51;22.30;36.50
20057;DHT22;10189;49.546;7.906;2022-08-06T12:51:17;22.30;36.30
20057;DHT22;10189;49.546;7.906;2022-08-06T12:53:50;22.40;36.30
20057;DHT22;10189;49.546;7.906;2022-08-06T12:56:19;22.60;35.90
20057;DHT22;10189;49.546;7.906;2022-08-06T12:58:48;22.60;36.10
20057;DHT22;10189;49.546;7.906;2022-08-06T13:01:18;22.60;35.60
20057;DHT22;10189;49.546;7.906;2022-08-06T13:03:51;22.50;34.40
20057;DHT22;10189;49.546;7.906;2022-08-06T13:06:24;22.40;34.80
20057;DHT22;10189;49.546;7.906;2022-08-06T13:08:53;22.30;35.30
20057;DHT22;10189;49.546;7.906;2022-08-06T13:11:27;22.10;36.60
20057;DHT22;10189;49.546;7.906;2022-08-06T13:13:54;22.20;36.40
20057;DHT22;10189;49.546;7.906;2022-08-06T13:16:20;22.50;34.70
20057;DHT22;10189;49.546;7.906;2022-08-06T13:19:04;22.50;35.40
20057;DHT22;10189;49.546;7.906;2022-08-06T13:21:35;22.50;34.40
20057;DHT22;10189;49.546;7.906;2022-08-06T13:24:05;22.30;34.90
20057;DHT22;10189;49.546;7.906;2022-08-06T13:26:34;22.30;34.90
20057;DHT22;10189;49.546;7.906;2022-08-06T13:29:14;22.50;34.10
20057;DHT22;10189;49.546;7.906;2022-08-06T13:32:15;22.70;34.50
20057;DHT22;10189;49.546;7.906;2022-08-06T13:34:50;22.60;34.90
20057;DHT22;10189;49.546;7.906;2022-08-06T13:37:41;22.60;34.60
20057;DHT22;10189;49.546;7.906;2022-08-06T13:40:15;22.70;35.60
20057;DHT22;10189;49.546;7.906;2022-08-06T13:42:50;22.80;35.90
20057;DHT22;10189;49.546;7.906;2022-08-06T13:45:24;22.90;36.10
20057;DHT22;10189;49.546;7.906;2022-08-06T13:48:02;22.80;35.20
20057;DHT22;10189;49.546;7.906;2022-08-06T13:50:42;22.90;35.50
20057;DHT22;10189;49.546;7.906;2022-08-06T13:53:10;23.10;35.20
20057;DHT22;10189;49.546;7.906;2022-08-06T13:55:38;23.10;34.50
20057;DHT22;10189;49.546;7.906;2022-08-06T13:58:08;23.00;34.20
20057;DHT22;10189;49.546;7.906;2022-08-06T14:00:36;22.60;34.10
20057;DHT22;10189;49.546;7.906;2022-08-06T14:03:03;22.40;34.30
20057;DHT22;10189;49.546;7.906;2022-08-06T14:05:29;22.30;33.70
20057;DHT22;10189;49.546;7.906;2022-08-06T14:07:55;22.30;33.70
20057;DHT22;10189;49.546;7.906;2022-08-06T14:10:21;22.20;33.70
20057;DHT22;10189;49.546;7.906;2022-08-06T14:12:47;22.20;33.80
20057;DHT22;10189;49.546;7.906;2022-08-06T14:15:34;22.10;34.30
20057;DHT22;10189;49.546;7.906;2022-08-06T14:18:01;22.20;35.00
20057;DHT22;10189;49.546;7.906;2022-08-06T14:20:27;22.40;33.70
20057;DHT22;10189;49.546;7.906;2022-08-06T14:22:53;22.60;33.90
20057;DHT22;10189;49.546;7.906;2022-08-06T14:25:22;22.70;33.50
20057;DHT22;10189;49.546;7.906;2022-08-06T14:27:48;22.80;33.20
20057;DHT22;10189;49.546;7.906;2022-08-06T14:30:15;22.90;32.50
20057;DHT22;10189;49.546;7.906;2022-08-06T14:32:42;22.70;32.60
20057;DHT22;10189;49.546;7.906;2022-08-06T14:35:09;22.70;32.40
20057;DHT22;10189;49.546;7.906;2022-08-06T14:37:36;22.70;33.90
20057;DHT22;10189;49.546;7.906;2022-08-06T14:40:03;22.70;34.10
20057;DHT22;10189;49.546;7.906;2022-08-06T14:42:29;22.80;33.10
20057;DHT22;10189;49.546;7.906;2022-08-06T14:45:13;22.80;33.20
20057;DHT22;10189;49.546;7.906;2022-08-06T14:47:40;22.70;32.80
20057;DHT22;10189;49.546;7.906;2022-08-06T14:50:07;22.50;33.20
20057;DHT22;10189;49.546;7.906;2022-08-06T14:52:33;22.40;34.20
20057;DHT22;10189;49.546;7.906;2022-08-06T14:54:59;22.70;33.70
20057;DHT22;10189;49.546;7.906;2022-08-06T14:57:27;22.80;33.40
20057;DHT22;10189;49.546;7.906;2022-08-06T14:59:53;22.80;33.30
20057;DHT22;10189;49.546;7.906;2022-08-06T15:02:22;22.90;33.00
20057;DHT22;10189;49.546;7.906;2022-08-06T15:04:50;22.80;33.00
20057;DHT22;10189;49.546;7.906;2022-08-06T15:07:17;22.80;33.50
20057;DHT22;10189;49.546;7.906;2022-08-06T15:09:43;22.70;33.20
20057;DHT22;10189;49.546;7.906;2022-08-06T15:12:09;22.80;33.70
20057;DHT22;10189;49.546;7.906;2022-08-06T15:14:35;22.80;34.10
20057;DHT22;10189;49.546;7.906;2022-08-06T15:17:01;22.70;33.40
20057;DHT22;10189;49.546;7.906;2022-08-06T15:19:27;22.60;33.70
20057;DHT22;10189;49.546;7.906;2022-08-06T15:21:53;22.50;33.80
20057;DHT22;10189;49.546;7.906;2022-08-06T15:24:19;22.60;34.90
20057;DHT22;10189;49.546;7.906;2022-08-06T15:26:44;22.60;33.80
20057;DHT22;10189;49.546;7.906;2022-08-06T15:29:11;22.60;33.60
20057;DHT22;10189;49.546;7.906;2022-08-06T15:31:37;22.50;34.00
20057;DHT22;10189;49.546;7.906;2022-08-06T15:34:04;22.50;33.80
20057;DHT22;10189;49.546;7.906;2022-08-06T15:36:31;22.40;34.10
20057;DHT22;10189;49.546;7.906;2022-08-06T15:38:57;22.50;33.80
20057;DHT22;10189;49.546;7.906;2022-08-06T15:41:23;22.40;33.70
20057;DHT22;10189;49.546;7.906;2022-08-06T15:43:53;22.40;33.50
20057;DHT22;10189;49.546;7.906;2022-08-06T15:46:19;22.30;33.10
20057;DHT22;10189;49.546;7.906;2022-08-06T15:48:45;22.20;33.60
20057;DHT22;10189;49.546;7.906;2022-08-06T15:51:12;22.20;33.50
20057;DHT22;10189;49.546;7.906;2022-08-06T15:53:38;22.00;32.60
20057;DHT22;10189;49.546;7.906;2022-08-06T15:56:04;22.00;32.80
20057;DHT22;10189;49.546;7.906;2022-08-06T15:58:30;22.00;33.00
20057;DHT22;10189;49.546;7.906;2022-08-06T16:00:56;22.10;33.10
20057;DHT22;10189;49.546;7.906;2022-08-06T16:03:22;22.20;33.30
20057;DHT22;10189;49.546;7.906;2022-08-06T16:05:49;22.40;32.80
20057;DHT22;10189;49.546;7.906;2022-08-06T16:08:15;22.40;32.80
20057;DHT22;10189;49.546;7.906;2022-08-06T16:10:43;22.60;32.60
20057;DHT22;10189;49.546;7.906;2022-08-06T16:13:12;22.90;31.20
20057;DHT22;10189;49.546;7.906;2022-08-06T16:15:48;23.20;30.80
20057;DHT22;10189;49.546;7.906;2022-08-06T16:18:16;23.50;30.90
20057;DHT22;10189;49.546;7.906;2022-08-06T16:20:44;24.20;29.90
20057;DHT22;10189;49.546;7.906;2022-08-06T16:23:11;24.60;29.30
20057;DHT22;10189;49.546;7.906;2022-08-06T16:25:38;24.30;29.80
20057;DHT22;10189;49.546;7.906;2022-08-06T16:28:05;24.50;29.30
20057;DHT22;10189;49.546;7.906;2022-08-06T16:30:32;24.80;29.00
20057;DHT22;10189;49.546;7.906;2022-08-06T16:32:59;25.00;29.70
20057;DHT22;10189;49.546;7.906;2022-08-06T16:35:26;25.50;28.60
20057;DHT22;10189;49.546;7.906;2022-08-06T16:37:52;25.70;28.30
20057;DHT22;10189;49.546;7.906;2022-08-06T16:40:20;25.50;28.00
20057;DHT22;10189;49.546;7.906;2022-08-06T16:42:48;25.20;28.30
20057;DHT22;10189;49.546;7.906;2022-08-06T16:45:14;25.10;27.90
20057;DHT22;10189;49.546;7.906;2022-08-06T16:47:41;24.70;27.80
20057;DHT22;10189;49.546;7.906;2022-08-06T16:50:08;24.60;27.90
20057;DHT22;10189;49.546;7.906;2022-08-06T16:52:37;24.50;28.90